CheckWX is a tool to help pilots better visualize weather data.  It is not intended as a substitute for an official pre-flight weather briefing.

20:56:59 UTC

KHLG TAF
Wheeling Ohio Co Airport
Wheeling, West Virginia, USA
KHLG 221904Z 2219/2318 30013G28KT P6SM OVC035 FM230100 30017G25KT P6SM OVC025 FM231200 30012KT P6SM BKN030

Mar-22@
19:00 UTC

Mar-22 @ 19:00 UTC

Mar-23@
01:00 UTC

Mar-23 @ 01:00 UTC

KHLG 221904Z 2219/2318 30013G28KT P6SM OVC035
Wind
  • 300° at 13 KTS
  • {Gusting to 28 KTS
Cloud Levels
  • Overcast at 3,500' AGL

Mar-23@
01:00 UTC

Mar-23 @ 01:00 UTC

Mar-23@
12:00 UTC

Mar-23 @ 12:00 UTC

FM230100 30017G25KT P6SM OVC025

From

From Standard forecast or significant change

Wind
  • 300° at 17 KTS
  • {Gusting to 25 KTS
Cloud Levels
  • Overcast at 2,500' AGL

Mar-23@
12:00 UTC

Mar-23 @ 12:00 UTC

Mar-23@
18:00 UTC

Mar-23 @ 18:00 UTC

FM231200 30012KT P6SM BKN030

From

From Standard forecast or significant change

Wind
  • 300° at 12 KTS
Cloud Levels
  • Broken at 3,000' AGL